createdAt,value
2018-05-14T00:00:03.584Z,15.10
2018-05-14T00:05:19.308Z,15.10
2018-05-14T00:07:58.916Z,15.20
2018-05-14T00:13:03.816Z,15.20
2018-05-14T00:18:25.057Z,15.20
2018-05-14T00:21:13.139Z,15.20
2018-05-14T00:23:50.381Z,15.10
2018-05-14T00:32:40.191Z,15.10
2018-05-14T00:35:10.000Z,15.20
2018-05-14T00:37:37.746Z,15.20
2018-05-14T00:40:08.764Z,15.20
2018-05-14T00:42:36.753Z,15.20
2018-05-14T00:45:04.452Z,15.20
2018-05-14T00:47:34.766Z,15.20
2018-05-14T00:50:02.663Z,15.20
2018-05-14T00:55:23.604Z,15.20
2018-05-14T00:57:53.064Z,15.20
2018-05-14T01:00:24.214Z,15.20
2018-05-14T01:03:07.236Z,15.20
2018-05-14T01:05:35.247Z,15.20
2018-05-14T01:08:06.829Z,15.20
2018-05-14T01:10:34.481Z,15.20
2018-05-14T01:16:23.407Z,15.30
2018-05-14T01:18:56.143Z,15.20
2018-05-14T01:24:28.863Z,15.20
2018-05-14T01:26:56.585Z,15.20
2018-05-14T01:29:24.268Z,15.10
2018-05-14T01:31:57.000Z,15.10
2018-05-14T01:34:26.438Z,15.10
2018-05-14T01:36:59.812Z,15.10
2018-05-14T01:42:27.545Z,15.10
2018-05-14T01:45:04.226Z,15.10
2018-05-14T01:47:32.434Z,15.10
2018-05-14T01:50:00.262Z,15.10
2018-05-14T01:52:35.970Z,15.00
2018-05-14T01:55:15.426Z,15.00
2018-05-14T01:57:54.781Z,15.00
2018-05-14T02:00:24.388Z,14.90
2018-05-14T02:03:06.747Z,14.90
2018-05-14T02:08:39.147Z,14.80
2018-05-14T02:11:08.357Z,14.80
2018-05-14T02:13:52.777Z,14.80
2018-05-14T02:16:39.767Z,14.80
2018-05-14T02:55:34.365Z,14.20
2018-05-14T02:58:07.677Z,14.20
2018-05-14T03:07:15.306Z,14.20
2018-05-14T03:29:10.256Z,14.20
2018-05-14T03:31:55.348Z,14.20
2018-05-14T03:34:27.480Z,14.20
2018-05-14T03:37:02.375Z,14.20
2018-05-14T03:45:33.473Z,14.20
2018-05-14T03:48:09.764Z,14.20
2018-05-14T03:56:29.317Z,14.10
2018-05-14T03:59:15.087Z,14.10
2018-05-14T04:24:19.355Z,14.40
2018-05-14T04:32:42.360Z,14.60
2018-05-14T04:35:24.508Z,14.70
2018-05-14T04:41:50.969Z,14.70
2018-05-14T04:44:19.652Z,14.60
2018-05-14T04:47:03.114Z,14.60
2018-05-14T04:50:07.120Z,14.60
2018-05-14T04:52:34.750Z,14.70
2018-05-14T04:55:14.856Z,14.70
2018-05-14T04:57:44.647Z,14.70
2018-05-14T05:00:16.692Z,14.70
2018-05-14T05:02:44.416Z,14.70
2018-05-14T05:05:16.222Z,14.70
2018-05-14T05:07:44.621Z,14.70
2018-05-14T05:15:54.680Z,14.90
2018-05-14T05:18:22.584Z,15.00
2018-05-14T05:20:50.191Z,15.10
2018-05-14T05:23:17.802Z,15.20
2018-05-14T05:25:45.720Z,15.30
2018-05-14T05:28:13.499Z,15.40
2018-05-14T05:30:41.426Z,15.40
2018-05-14T05:33:10.115Z,15.50
2018-05-14T05:35:44.111Z,15.30
2018-05-14T05:38:15.417Z,15.30
2018-05-14T05:40:42.968Z,15.30
2018-05-14T05:43:10.550Z,15.20
2018-05-14T05:45:38.629Z,15.10
2018-05-14T05:48:06.527Z,15.10
2018-05-14T05:50:34.121Z,15.10
2018-05-14T05:53:01.685Z,15.10
2018-05-14T05:55:36.519Z,15.10
2018-05-14T05:58:04.210Z,15.20
2018-05-14T06:00:35.348Z,15.30
2018-05-14T06:05:45.113Z,15.50
2018-05-14T06:08:15.986Z,15.60
2018-05-14T06:10:49.828Z,15.70
2018-05-14T06:13:18.638Z,15.70
2018-05-14T06:15:46.205Z,15.70
2018-05-14T06:18:13.837Z,15.90
2018-05-14T06:20:41.416Z,16.00
2018-05-14T06:23:08.967Z,16.20
2018-05-14T06:25:36.578Z,16.30
2018-05-14T06:28:04.164Z,16.40
2018-05-14T06:30:31.755Z,16.40
2018-05-14T06:33:07.508Z,16.40
2018-05-14T06:35:35.171Z,16.30
2018-05-14T06:38:02.729Z,16.30
2018-05-14T06:43:09.887Z,16.60
2018-05-14T06:45:37.616Z,16.60
2018-05-14T06:48:05.409Z,16.80
2018-05-14T06:50:33.377Z,17.00
2018-05-14T06:53:01.341Z,17.00
2018-05-14T06:55:35.368Z,17.30
2018-05-14T06:58:02.903Z,17.30
2018-05-14T07:00:41.327Z,17.30
2018-05-14T07:03:10.542Z,17.20
2018-05-14T07:05:46.004Z,17.20
2018-05-14T07:08:20.227Z,17.10
2018-05-14T07:10:49.061Z,16.70
2018-05-14T07:13:21.419Z,16.70
2018-05-14T07:15:49.029Z,16.60
2018-05-14T07:18:16.587Z,16.60
2018-05-14T07:20:44.992Z,16.50
2018-05-14T07:23:12.584Z,16.50
2018-05-14T07:25:40.141Z,16.50
2018-05-14T07:28:07.726Z,16.50
2018-05-14T07:30:35.821Z,16.40
2018-05-14T07:33:03.396Z,16.40
2018-05-14T07:35:30.940Z,16.40
2018-05-14T07:37:58.484Z,16.40
2018-05-14T07:40:26.119Z,16.40
2018-05-14T07:42:53.747Z,16.30
2018-05-14T07:45:21.679Z,16.10
2018-05-14T07:47:49.411Z,16.00
2018-05-14T07:50:17.025Z,16.00
2018-05-14T07:52:44.603Z,16.00
2018-05-14T07:55:12.248Z,16.00
2018-05-14T07:57:43.073Z,16.10
2018-05-14T08:00:10.898Z,16.20
2018-05-14T08:02:38.512Z,16.20
2018-05-14T08:05:06.558Z,16.30
2018-05-14T08:07:34.421Z,16.40
2018-05-14T08:10:03.190Z,16.50
2018-05-14T08:12:31.589Z,16.70
2018-05-14T08:14:59.252Z,16.60
2018-05-14T08:17:26.855Z,16.80
2018-05-14T08:19:54.910Z,17.00
2018-05-14T08:22:22.951Z,17.10
2018-05-14T08:24:50.740Z,17.10
2018-05-14T08:27:18.904Z,17.10
2018-05-14T08:29:47.002Z,17.10
2018-05-14T08:32:14.887Z,17.20
2018-05-14T08:34:42.996Z,17.20
2018-05-14T08:37:11.207Z,17.30
2018-05-14T08:39:39.154Z,17.40
2018-05-14T08:42:06.813Z,17.60
2018-05-14T08:44:34.996Z,17.70
2018-05-14T08:47:02.756Z,17.80
2018-05-14T08:49:31.865Z,17.90
2018-05-14T08:51:59.871Z,18.00
2018-05-14T08:54:27.590Z,18.10
2018-05-14T09:09:27.628Z,18.50
2018-05-14T09:14:38.395Z,18.50
2018-05-14T09:17:14.319Z,18.80
2018-05-14T09:19:48.241Z,19.30
2018-05-14T09:22:26.561Z,19.70
2018-05-14T09:25:08.328Z,20.10
2018-05-14T09:27:37.716Z,20.90
2018-05-14T09:33:07.067Z,21.50
2018-05-14T09:42:59.634Z,21.90
2018-05-14T09:54:05.559Z,22.80
2018-05-14T09:56:33.671Z,22.80
2018-05-14T09:59:01.745Z,22.90
2018-05-14T10:01:30.101Z,22.80
2018-05-14T10:03:58.508Z,22.80
2018-05-14T10:06:26.744Z,23.20
2018-05-14T10:08:55.296Z,23.30
2018-05-14T10:11:23.595Z,23.50
2018-05-14T10:13:51.442Z,23.50
2018-05-14T10:16:19.392Z,23.60
2018-05-14T10:18:47.514Z,23.60
2018-05-14T10:21:15.728Z,23.60
2018-05-14T10:23:50.811Z,23.60
2018-05-14T10:35:00.768Z,23.70
2018-05-14T10:47:59.247Z,24.90
2018-05-14T10:56:22.537Z,25.40
2018-05-14T10:59:21.114Z,25.60
2018-05-14T11:01:49.157Z,25.40
2018-05-14T11:04:16.708Z,25.40
2018-05-14T11:06:44.642Z,25.20
2018-05-14T11:09:12.697Z,25.30
2018-05-14T11:11:40.686Z,25.40
2018-05-14T11:14:08.268Z,25.40
2018-05-14T11:16:36.253Z,25.70
2018-05-14T11:19:03.833Z,25.70
2018-05-14T11:21:31.411Z,25.60
2018-05-14T11:23:59.084Z,25.70
2018-05-14T11:26:26.671Z,25.90
2018-05-14T11:28:54.595Z,26.10
2018-05-14T11:31:22.169Z,26.10
2018-05-14T11:33:49.727Z,26.50
2018-05-14T11:36:17.254Z,27.00
2018-05-14T11:38:44.828Z,27.30
2018-05-14T11:41:13.223Z,27.50
2018-05-14T11:43:42.274Z,27.40
2018-05-14T11:46:10.981Z,27.70
2018-05-14T11:48:40.317Z,27.80
2018-05-14T11:51:08.261Z,28.10
2018-05-14T11:53:35.862Z,28.20
2018-05-14T11:56:04.763Z,29.10
2018-05-14T11:58:32.876Z,30.30
2018-05-14T12:01:01.078Z,31.40
2018-05-14T12:03:28.632Z,32.30
2018-05-14T12:05:56.307Z,32.90
2018-05-14T12:08:24.271Z,34.50
2018-05-14T12:10:52.530Z,34.50
2018-05-14T12:13:20.088Z,34.70
2018-05-14T12:15:47.729Z,34.80
2018-05-14T12:18:15.250Z,34.70
2018-05-14T12:20:43.250Z,35.00
2018-05-14T12:23:11.571Z,35.00
2018-05-14T12:25:39.553Z,35.00
2018-05-14T12:28:07.463Z,36.60
2018-05-14T12:30:35.885Z,36.60
2018-05-14T12:33:05.493Z,37.30
2018-05-14T12:35:33.686Z,37.90
2018-05-14T12:38:02.442Z,38.50
2018-05-14T12:40:30.031Z,38.50
2018-05-14T12:42:59.334Z,38.90
2018-05-14T12:45:32.581Z,38.20
2018-05-14T12:48:05.104Z,38.10
2018-05-14T12:50:33.736Z,37.60
2018-05-14T12:53:01.356Z,37.60
2018-05-14T12:55:31.027Z,37.80
2018-05-14T12:57:58.612Z,37.80
2018-05-14T13:00:27.123Z,35.80
2018-05-14T13:02:54.684Z,33.50
2018-05-14T13:05:22.654Z,29.30
2018-05-14T13:07:50.216Z,29.30
2018-05-14T13:10:17.778Z,28.00
2018-05-14T13:12:45.355Z,27.00
2018-05-14T13:15:13.149Z,26.20
2018-05-14T13:17:41.618Z,25.50
2018-05-14T13:20:09.206Z,25.10
2018-05-14T13:22:36.893Z,24.90
2018-05-14T13:25:04.491Z,24.70
2018-05-14T13:27:32.099Z,24.60
2018-05-14T13:29:59.876Z,24.90
2018-05-14T13:32:27.672Z,26.70
2018-05-14T13:34:55.237Z,28.80
2018-05-14T13:37:23.775Z,30.80
2018-05-14T13:39:51.753Z,29.70
2018-05-14T13:42:19.392Z,29.70
2018-05-14T13:44:46.913Z,28.40
2018-05-14T13:47:14.494Z,27.30
2018-05-14T13:49:42.110Z,26.50
2018-05-14T13:52:09.726Z,26.00
2018-05-14T13:54:38.128Z,25.50
2018-05-14T13:57:06.484Z,25.20
2018-05-14T13:59:34.055Z,24.90
2018-05-14T14:02:01.944Z,24.70
2018-05-14T14:04:29.493Z,24.60
2018-05-14T14:06:57.472Z,24.50
2018-05-14T14:09:25.068Z,24.50
2018-05-14T14:11:52.675Z,24.50
2018-05-14T14:14:20.637Z,24.60
2018-05-14T14:16:48.185Z,24.60
2018-05-14T14:19:15.769Z,24.60
2018-05-14T14:21:43.809Z,24.80
2018-05-14T14:24:11.437Z,24.80
2018-05-14T14:26:39.376Z,25.40
2018-05-14T14:29:06.912Z,25.40
2018-05-14T14:31:34.497Z,25.90
2018-05-14T14:34:02.208Z,26.80
2018-05-14T14:36:29.890Z,28.30
2018-05-14T14:38:57.355Z,29.30
2018-05-14T14:41:24.963Z,29.40
2018-05-14T14:43:52.585Z,28.80
2018-05-14T14:46:20.147Z,28.00
2018-05-14T14:48:48.444Z,27.20
2018-05-14T14:51:16.462Z,26.20
2018-05-14T14:53:44.788Z,26.20
2018-05-14T14:56:12.701Z,25.80
2018-05-14T14:58:40.316Z,25.80
2018-05-14T15:01:07.924Z,25.80
2018-05-14T15:03:35.443Z,25.90
2018-05-14T15:06:03.886Z,26.30
2018-05-14T15:08:31.463Z,27.00
2018-05-14T15:10:59.413Z,28.60
2018-05-14T15:13:26.968Z,28.60
2018-05-14T15:15:54.625Z,28.80
2018-05-14T15:18:22.220Z,28.60
2018-05-14T15:20:49.805Z,28.20
2018-05-14T15:23:17.352Z,28.00
2018-05-14T15:25:44.944Z,28.50
2018-05-14T15:28:12.543Z,29.10
2018-05-14T15:30:40.170Z,30.00
2018-05-14T15:33:08.629Z,30.40
2018-05-14T15:35:36.215Z,30.40
2018-05-14T15:38:03.788Z,29.80
2018-05-14T15:40:31.333Z,29.30
2018-05-14T15:43:00.446Z,29.00
2018-05-14T15:45:27.993Z,28.70
2018-05-14T15:47:55.546Z,28.30
2018-05-14T15:50:23.133Z,27.80
2018-05-14T15:52:51.111Z,27.40
2018-05-14T15:55:19.051Z,26.70
2018-05-14T15:57:47.522Z,26.70
2018-05-14T16:00:15.083Z,26.50
2018-05-14T16:02:42.696Z,26.20
2018-05-14T16:05:10.742Z,26.00
2018-05-14T16:10:12.114Z,25.80
2018-05-14T16:12:39.644Z,25.70
2018-05-14T16:15:07.302Z,25.50
2018-05-14T16:17:34.837Z,25.40
2018-05-14T16:20:03.222Z,25.30
2018-05-14T16:52:11.714Z,25.80
2018-05-14T16:54:39.265Z,26.50
2018-05-14T16:57:09.075Z,26.60
2018-05-14T16:59:36.659Z,26.90
2018-05-14T17:02:04.184Z,26.90
2018-05-14T17:04:32.180Z,27.20
2018-05-14T17:06:59.760Z,27.20
2018-05-14T17:09:27.324Z,26.70
2018-05-14T17:11:54.901Z,26.10
2018-05-14T19:18:58.451Z,21.30
2018-05-14T19:21:26.089Z,21.20
2018-05-14T19:23:54.194Z,21.00
2018-05-14T19:26:21.659Z,21.00
2018-05-14T19:28:55.256Z,20.80
2018-05-14T19:31:23.563Z,20.80
2018-05-14T19:33:59.902Z,20.70
2018-05-14T19:36:29.767Z,20.60
2018-05-14T19:38:57.398Z,20.60
2018-05-14T19:41:25.344Z,20.60
2018-05-14T19:43:53.325Z,20.50
2018-05-14T19:46:21.843Z,20.40
2018-05-14T19:48:49.623Z,20.50
2018-05-14T19:51:17.187Z,20.30
2018-05-14T19:53:45.392Z,20.30
2018-05-14T19:56:13.370Z,20.20
2018-05-14T19:58:40.938Z,20.20
2018-05-14T20:01:08.503Z,20.20
2018-05-14T20:03:36.471Z,20.10
2018-05-14T20:06:07.745Z,20.10
2018-05-14T20:08:35.331Z,20.10
2018-05-14T20:11:03.105Z,20.10
2018-05-14T20:13:31.020Z,20.00
2018-05-14T20:15:58.701Z,20.00
2018-05-14T20:18:26.364Z,19.90
2018-05-14T20:20:54.076Z,19.80
2018-05-14T20:23:21.660Z,19.70
2018-05-14T20:25:49.267Z,19.70
2018-05-14T20:28:16.893Z,19.60
2018-05-14T20:30:44.566Z,19.50
2018-05-14T20:33:14.795Z,19.50
2018-05-14T20:35:42.396Z,19.50
2018-05-14T20:38:11.054Z,19.40
2018-05-14T20:40:39.367Z,19.40
2018-05-14T20:43:07.323Z,19.40
2018-05-14T20:45:35.821Z,19.30
2018-05-14T21:51:49.235Z,17.60
2018-05-14T22:00:36.403Z,17.40
2018-05-14T22:03:05.441Z,17.40
2018-05-14T22:05:33.684Z,17.40
2018-05-14T22:08:01.778Z,17.40
2018-05-14T22:10:30.581Z,17.50
2018-05-14T22:12:58.185Z,17.50
2018-05-14T22:15:28.475Z,17.50
2018-05-14T22:17:56.548Z,17.50
2018-05-14T22:20:24.289Z,17.50
2018-05-14T22:22:51.854Z,17.60
2018-05-14T22:25:20.618Z,17.60
2018-05-14T22:27:48.210Z,17.70
2018-05-14T22:30:16.664Z,17.70
2018-05-14T22:32:44.443Z,17.80
2018-05-14T22:35:12.412Z,17.80
2018-05-14T22:37:41.148Z,17.80
2018-05-14T22:40:09.113Z,17.80
2018-05-14T22:42:37.092Z,17.80
2018-05-14T22:45:05.837Z,17.90
2018-05-14T22:47:36.013Z,17.90
2018-05-14T22:50:03.607Z,17.90
2018-05-14T22:52:31.609Z,18.00
2018-05-14T22:54:59.172Z,18.00
2018-05-14T22:57:29.944Z,18.00
2018-05-14T22:59:58.162Z,18.00
2018-05-14T23:02:25.768Z,17.90
2018-05-14T23:04:53.321Z,17.90
2018-05-14T23:07:22.412Z,17.70
2018-05-14T23:09:52.050Z,17.50
2018-05-14T23:12:19.622Z,17.20
2018-05-14T23:14:48.068Z,17.00
2018-05-14T23:17:16.512Z,16.90
2018-05-14T23:19:44.166Z,16.90
2018-05-14T23:22:16.474Z,16.80
2018-05-14T23:24:44.563Z,16.80
2018-05-14T23:27:12.937Z,16.80
2018-05-14T23:29:40.767Z,16.70
2018-05-14T23:32:08.328Z,16.60
2018-05-14T23:34:36.335Z,16.50
2018-05-14T23:37:03.893Z,16.50
2018-05-14T23:39:32.077Z,16.40
2018-05-14T23:42:01.486Z,16.40
2018-05-14T23:44:29.652Z,16.30
2018-05-14T23:46:58.209Z,16.20
2018-05-14T23:49:25.818Z,16.10
2018-05-14T23:51:54.244Z,16.10
2018-05-14T23:54:21.853Z,16.10
2018-05-14T23:56:49.979Z,16.00
2018-05-14T23:59:17.894Z,16.00
